Mahwah, NJ

4:37 PM EDT on August 30, 2016 (GMT -0400)
Ramsey Emergency Management | | Change Station

Elev 350 ft 41.06 °N, 74.14 °W | Updated 6 seconds ago

Scattered Clouds
Scattered Clouds
85.2 °F
Feels Like 85 °F
N
2.0
Wind Variable Wind from SW
Gusts 8.0 mph

Today
High -- | Low -- °F
--% Chance of Precip.
Yesterday
High -- | Low -- °F
Precip. -- in
Pressure 30.08 in
Visibility 10.0 miles
Clouds Scattered Clouds 5000 ft
Heat Index 85 °F
Dew Point 60 °F
Humidity 42%
Rainfall 0.00 in
Snow Depth Not available.
6:21 AM 7:31 PM
Waning Crescent, 2% visible
METAR KCDW 301953Z VRB03KT 10SM SCT050 30/14 A3006 RMK AO2 SLP184 T03000139
Pressure 30.08 in
Visibility 10.0 miles
Clouds Scattered Clouds 5000 ft
Heat Index 85 °F
Dew Point 60 °F
Humidity 42%
Rainfall 0.00 in
Snow Depth Not available.
6:21 AM 7:31 PM
Waning Crescent, 2% visible
METAR KCDW 301953Z VRB03KT 10SM SCT050 30/14 A3006 RMK AO2 SLP184 T03000139

10-Day Weather Forecast

Almanac

Astronomy

Aug. 30, 2016 Rise Set
Actual Time
Civil Twilight
Nautical Twilight
Astronomical Twilight
Moon
Length of Visible Light
Length of Day
Tomorrow will be .
, % of the Moon is Illuminated

Today's Extremes

State Highs State Lows

Community

WunderPhotos

Upload Photos

1,935,889 photos uploaded!

WunderBlog® & News

Nearby

Air Quality

  Air Quality AQ Index Pollutant
Not available.

Snow Depth

Station Depth Elevation

Earthquake Activity

City Distance Mag. Time & Date
Minimum magnitude displayed is 2.5.

Coastal Water Temperatures

Place Temperature

Stations

Nearby Weather Stations

Station Location Temp. Windchill Dew Point Humidity Wind Precip. Elev Updated Type
                   

Watches & Warnings

There are currently no watches in effect.